X  Close Metar Aviation Weather Data     NZWN Wellington International Airport
Temperature
8°C Temperature
2°C Dewpoint
66% Humidity



Wind
26 KM/H
16 MPH
7 M/S
14 KTS



180°
S
Current Conditions

Mostly Scattered Clouds Mostly Scattered Clouds
Pressure 1014.92 (hPa) - 29.97 (inHg)
Visibility 6.2 (mile) - 10 (km)
Airport
Airport-code NZWN

Location: Wellington International Airport
Distance: 14 (km)

Metar:
NZWN 092300Z AUTO 18014KT 9999 SCT037/// BKN044/// OVC050/// 08/02 Q1015 NOSIG

Time: 10-08-2022 11:00 NZST